Time;durP1;ratioP1;P1;durP2;ratioP2;P2;SDS_P1;SDS_P2;PMS_P1;PMS_P2;Temp;Humidity;BMP_temperature;BMP_pressure;BME280_temperature;BME280_humidity;BME280_pressure;Samples;Min_cycle;Max_cycle;Signal;HPM_P1;HPM_P2
2023/12/18 00:02:24;;;;;;;;;;;9.90;61.60;;;8.55;63.96;102566.09;12243728;19;19918;-84
2023/12/18 00:06:25;;;;;;;;;;;9.90;61.60;;;8.48;64.06;102543.66;12248772;19;19923;-85
2023/12/18 00:10:27;;;;;;;;;;;9.90;61.60;;;8.23;64.08;102496.34;12245724;19;19938;-85
2023/12/18 00:14:28;;;;;;;;;;;9.90;61.70;;;8.48;64.01;102543.66;12244671;19;19915;-85
2023/12/18 00:18:30;;;;;;;;;;;10.10;61.80;;;8.48;64.17;102539.34;12245806;19;19929;-85
2023/12/18 00:22:32;;;;;;;;;;;10.10;61.80;;;8.29;64.03;102497.09;12243659;19;19927;-85
2023/12/18 00:26:34;;;;;;;;;;;9.90;61.70;;;8.41;64.22;102517.72;12247794;19;20260;-85
2023/12/18 00:30:35;;;;;;;;;;;9.90;62.00;;;8.48;64.11;102521.09;12244201;19;19910;-85
2023/12/18 00:34:40;;;;;;;;;;;9.90;61.80;;;8.53;64.02;102518.41;12247054;19;19914;-84
2023/12/18 00:38:42;;;;;;;;;;;9.90;61.70;;;8.52;64.10;102524.50;12246152;19;19915;-84
2023/12/18 00:42:43;;;;;;;;;;;10.10;62.00;;;8.48;64.06;102515.91;12244491;19;19940;-85
2023/12/18 00:46:44;;;;;;;;;;;9.90;61.90;;;8.46;64.24;102509.00;12245539;19;19922;-85
2023/12/18 00:50:45;;;;;;;;;;;9.90;61.80;;;8.37;64.12;102486.53;12241358;19;19933;-85
2023/12/18 00:54:47;;;;;;;;;;;9.90;61.90;;;8.30;64.10;102471.94;12243433;19;19978;-85
2023/12/18 00:58:48;;;;;;;;;;;10.00;62.00;;;8.47;64.16;102498.53;12242012;19;19922;-85
2023/12/18 01:02:50;;;;;;;;;;;9.90;61.90;;;8.50;64.10;102513.25;12243642;19;19970;-85
2023/12/18 01:06:52;;;;;;;;;;;9.90;61.90;;;8.47;64.19;102505.50;12245846;19;19919;-85
2023/12/18 01:10:53;;;;;;;;;;;9.90;62.00;;;8.38;64.20;102491.72;12239245;19;19925;-84
2023/12/18 01:14:55;;;;;;;;;;;9.80;61.90;;;8.46;64.11;102506.41;12245206;19;20242;-85
2023/12/18 01:18:56;;;;;;;;;;;9.80;61.90;;;8.46;64.29;102509.00;12242807;19;19937;-85
2023/12/18 01:22:58;;;;;;;;;;;9.90;62.10;;;8.50;64.08;102497.63;12243659;19;20261;-85
2023/12/18 01:26:59;;;;;;;;;;;9.90;62.10;;;8.49;64.01;102498.53;12243333;19;19926;-85
2023/12/18 01:31:01;;;;;;;;;;;9.90;62.10;;;8.25;64.08;102456.38;12242105;19;19919;-85
2023/12/18 01:35:02;;;;;;;;;;;9.90;62.10;;;8.37;64.27;102476.13;12254415;19;19919;-84
2023/12/18 01:39:04;;;;;;;;;;;9.90;62.10;;;8.48;64.23;102499.38;12253811;19;19919;-85
2023/12/18 01:43:25;;;;;;;;;;;9.80;62.00;;;8.49;64.03;102488.97;12254833;19;20320;-85
2023/12/18 01:47:27;;;;;;;;;;;9.80;62.00;;;8.47;64.06;102485.53;12255827;19;19915;-84
2023/12/18 01:51:29;;;;;;;;;;;9.90;62.10;;;8.41;64.13;102470.88;12250251;19;19914;-85
2023/12/18 01:55:31;;;;;;;;;;;9.80;62.00;;;8.50;64.01;102490.66;12253772;19;19995;-85
2023/12/18 01:59:33;;;;;;;;;;;9.80;62.00;;;8.42;64.16;102482.13;12253109;19;19942;-84
2023/12/18 02:03:35;;;;;;;;;;;9.90;62.10;;;8.44;64.30;102469.13;12252773;19;19930;-85
2023/12/18 02:07:37;;;;;;;;;;;9.80;62.00;;;8.41;63.93;102476.09;12253737;19;19918;-85
2023/12/18 02:11:42;;;;;;;;;;;9.80;61.90;;;8.36;64.01;102471.81;12249720;19;19950;-85
2023/12/18 02:15:44;;;;;;;;;;;9.80;62.00;;;8.43;64.02;102476.06;12251686;19;19929;-85
2023/12/18 02:19:46;;;;;;;;;;;9.80;62.00;;;8.45;64.16;102494.25;12252424;19;19927;-85
2023/12/18 02:23:48;;;;;;;;;;;9.80;62.20;;;8.33;64.15;102464.06;12252566;19;20346;-85
2023/12/18 02:27:50;;;;;;;;;;;9.80;62.10;;;8.23;64.28;102450.34;12246344;19;20295;-85
2023/12/18 02:31:52;;;;;;;;;;;9.80;62.20;;;8.43;64.13;102485.63;12248173;19;19911;-84
2023/12/18 02:35:56;;;;;;;;;;;9.80;62.90;;;8.24;64.10;102449.47;12250924;19;19929;-85
2023/12/18 02:39:58;;;;;;;;;;;9.80;62.20;;;8.41;64.09;102475.22;12249166;19;19918;-85
2023/12/18 02:43:59;;;;;;;;;;;9.80;62.20;;;8.23;64.05;102437.31;12249975;19;19923;-84
2023/12/18 02:48:01;;;;;;;;;;;9.80;62.20;;;7.94;64.05;102396.22;12250297;19;19918;-84
2023/12/18 02:52:03;;;;;;;;;;;9.80;62.30;;;8.43;64.06;102483.03;12245690;19;19919;-85
2023/12/18 02:56:05;;;;;;;;;;;9.80;62.20;;;8.45;64.12;102494.25;12248627;19;19915;-85
2023/12/18 03:00:08;;;;;;;;;;;9.80;62.30;;;8.47;64.25;102489.88;12245914;19;19919;-84
2023/12/18 03:04:10;;;;;;;;;;;9.80;62.40;;;8.46;64.10;102483.81;12249275;19;19928;-84
2023/12/18 03:08:11;;;;;;;;;;;9.90;62.60;;;8.39;64.10;102462.22;12250088;19;19919;-85
2023/12/18 03:12:13;;;;;;;;;;;9.90;62.60;;;8.48;64.13;102470.75;12246912;19;19915;-84
2023/12/18 03:16:15;;;;;;;;;;;9.80;62.50;;;8.35;64.25;102464.91;12248981;19;19918;-85
2023/12/18 03:20:16;;;;;;;;;;;9.90;62.60;;;8.47;64.25;102469.06;12247355;19;19911;-85
2023/12/18 03:24:17;;;;;;;;;;;10.10;62.90;;;8.47;64.15;102458.63;12248967;19;19948;-85
2023/12/18 03:28:19;;;;;;;;;;;9.90;62.70;;;8.50;64.41;102466.38;12250059;19;19923;-85
2023/12/18 03:32:21;;;;;;;;;;;10.00;62.80;;;8.47;64.15;102463.84;12245631;19;19967;-85
2023/12/18 03:36:23;;;;;;;;;;;10.00;62.70;;;8.64;64.30;102480.88;12248993;19;19926;-85
2023/12/18 03:40:24;;;;;;;;;;;10.20;62.90;;;8.64;64.35;102469.56;12247768;19;19910;-84
2023/12/18 03:44:26;;;;;;;;;;;10.00;62.70;;;8.47;64.33;102441.25;12246870;19;19922;-85
2023/12/18 03:48:28;;;;;;;;;;;10.10;62.80;;;8.60;64.23;102454.91;12247698;19;19922;-84
2023/12/18 03:52:29;;;;;;;;;;;10.10;62.80;;;8.58;64.23;102441.06;12243666;19;19932;-85
2023/12/18 03:56:31;;;;;;;;;;;10.10;62.70;;;8.58;64.25;102444.53;12247362;19;20325;-85
2023/12/18 04:00:33;;;;;;;;;;;10.20;62.80;;;8.78;64.33;102480.63;12246438;19;19925;-85
2023/12/18 04:04:35;;;;;;;;;;;10.20;62.90;;;8.58;64.30;102441.06;12248079;19;19922;-84
2023/12/18 04:08:39;;;;;;;;;;;10.20;63.00;;;8.83;64.41;102477.91;12244975;19;19915;-84
2023/12/18 04:12:41;;;;;;;;;;;10.20;63.00;;;8.90;64.38;102483.88;12244574;19;19918;-85
2023/12/18 04:16:42;;;;;;;;;;;10.30;63.20;;;8.85;64.31;102461.34;12247982;19;19934;-84
2023/12/18 04:20:44;;;;;;;;;;;10.30;63.20;;;8.98;64.27;102485.41;12245867;19;19919;-85
2023/12/18 04:24:46;;;;;;;;;;;10.40;63.30;;;9.02;64.35;102481.03;12245834;19;19917;-85
2023/12/18 04:28:47;;;;;;;;;;;10.40;63.30;;;8.99;64.51;102461.09;12246145;19;19955;-85
2023/12/18 04:32:49;;;;;;;;;;;10.60;63.40;;;9.03;64.42;102464.50;12246307;19;19937;-85
2023/12/18 04:36:50;;;;;;;;;;;10.50;63.30;;;9.16;64.44;102465.94;12245388;19;20269;-85
2023/12/18 04:40:52;;;;;;;;;;;10.60;63.30;;;8.93;64.40;102422.13;12244622;19;19926;-85
2023/12/18 04:44:54;;;;;;;;;;;10.60;63.30;;;9.19;64.50;102457.22;12246569;19;20271;-84
2023/12/18 04:48:55;;;;;;;;;;;10.60;63.20;;;9.03;64.50;102423.66;12244720;19;19919;-85
2023/12/18 04:52:57;;;;;;;;;;;10.60;63.20;;;9.21;64.41;102442.41;12245971;19;19919;-84
2023/12/18 04:56:58;;;;;;;;;;;10.70;63.20;;;9.29;64.49;102458.72;12244260;19;19922;-84
2023/12/18 05:01:00;;;;;;;;;;;10.80;63.20;;;9.34;64.37;102454.25;12242738;19;19921;-85
2023/12/18 05:05:02;;;;;;;;;;;10.70;63.10;;;9.24;64.41;102418.88;12244597;19;19919;-85
2023/12/18 05:09:03;;;;;;;;;;;10.80;63.20;;;9.40;64.59;102448.06;12252359;19;19935;-85
2023/12/18 05:13:05;;;;;;;;;;;11.10;63.40;;;9.19;64.45;102398.13;12256695;19;19907;-84
2023/12/18 05:17:06;;;;;;;;;;;11.10;63.30;;;9.34;64.41;102425.56;12255733;19;19922;-85
2023/12/18 05:21:10;;;;;;;;;;;10.90;63.10;;;9.42;64.45;102428.00;12251534;19;19927;-85
2023/12/18 05:25:12;;;;;;;;;;;10.90;63.00;;;9.53;64.46;102442.53;12254127;19;19926;-85
2023/12/18 05:29:14;;;;;;;;;;;11.00;63.00;;;9.50;64.42;102436.50;12254177;19;19982;-85
2023/12/18 05:33:15;;;;;;;;;;;11.00;62.70;;;9.56;64.44;102446.81;12251171;19;19938;-85
2023/12/18 05:37:17;;;;;;;;;;;11.00;62.70;;;9.38;64.49;102435.06;12253841;19;20281;-85
2023/12/18 05:41:19;;;;;;;;;;;11.20;62.60;;;9.64;64.38;102483.13;12251260;19;19918;-85
2023/12/18 05:45:21;;;;;;;;;;;11.10;62.40;;;9.50;64.52;102463.47;12254624;19;19979;-85
2023/12/18 05:49:22;;;;;;;;;;;11.10;62.30;;;9.52;64.40;102472.09;12252330;19;19915;-85
2023/12/18 05:53:23;;;;;;;;;;;11.10;63.00;;;9.58;64.44;102476.31;12253400;19;19919;-85
2023/12/18 05:57:25;;;;;;;;;;;11.30;62.50;;;9.61;64.42;102491.03;12252091;19;19923;-85
2023/12/18 06:01:27;;;;;;;;;;;11.10;61.90;;;9.66;64.41;102502.22;12250408;19;19939;-85
2023/12/18 06:05:28;;;;;;;;;;;11.20;62.00;;;9.73;64.45;102522.91;12250553;19;20262;-85
2023/12/18 06:09:30;;;;;;;;;;;11.20;62.20;;;9.71;64.42;102516.88;12250754;19;19914;-85
2023/12/18 06:13:32;;;;;;;;;;;11.20;62.20;;;9.77;64.40;102525.47;12251167;19;20342;-85
2023/12/18 06:17:34;;;;;;;;;;;11.20;62.00;;;9.77;64.40;102518.47;12252066;19;19917;-85
2023/12/18 06:21:42;;;;;;;;;;;11.20;62.00;;;9.73;64.48;102509.88;12249876;19;19974;-85
2023/12/18 06:25:44;;;;;;;;;;;11.20;62.00;;;9.55;64.50;102478.13;12254594;19;19915;-85
2023/12/18 06:29:46;;;;;;;;;;;11.20;61.90;;;9.59;64.29;102490.22;12256188;19;19991;-85
2023/12/18 06:33:48;;;;;;;;;;;11.20;61.60;;;9.67;64.45;102489.16;12258560;19;20402;-85
2023/12/18 06:37:49;;;;;;;;;;;11.20;61.60;;;9.80;64.49;102528.00;12261339;19;19944;-85
2023/12/18 06:41:51;;;;;;;;;;;11.20;61.50;;;9.81;64.39;102535.78;12255655;19;19939;-85
2023/12/18 06:45:53;;;;;;;;;;;11.20;61.60;;;9.77;64.59;102523.69;12259668;19;19919;-85
2023/12/18 06:49:55;;;;;;;;;;;11.30;61.70;;;9.69;64.52;102517.81;12250638;19;19923;-84
2023/12/18 06:53:56;;;;;;;;;;;11.20;61.50;;;9.78;64.46;102528.03;12250336;19;19915;-84
2023/12/18 06:57:58;;;;;;;;;;;11.20;61.60;;;9.81;64.27;102521.91;12251545;19;19925;-83
2023/12/18 07:02:00;;;;;;;;;;;11.20;61.30;;;9.74;64.43;102503.75;12248795;19;19910;-84
2023/12/18 07:06:02;;;;;;;;;;;11.30;61.70;;;9.84;64.43;102512.25;12251575;19;19919;-84
2023/12/18 07:10:04;;;;;;;;;;;11.30;61.60;;;9.83;64.44;102520.09;12247679;19;19914;-84
2023/12/18 07:14:06;;;;;;;;;;;11.30;61.60;;;9.84;64.31;102527.91;12250409;19;20881;-83
2023/12/18 07:18:07;;;;;;;;;;;11.30;61.60;;;9.78;64.35;102522.81;12249652;19;19925;-83
2023/12/18 07:22:09;;;;;;;;;;;11.30;61.40;;;9.61;64.38;102484.06;12245975;19;19910;-83
2023/12/18 07:26:12;;;;;;;;;;;11.30;61.50;;;9.88;64.24;102539.09;12251285;19;19911;-83
2023/12/18 07:30:14;;;;;;;;;;;11.30;61.40;;;9.75;64.17;102534.19;12243692;19;20263;-85
2023/12/18 07:34:15;;;;;;;;;;;11.30;61.30;;;9.90;64.36;102542.56;12247530;19;19919;-85
2023/12/18 07:38:17;;;;;;;;;;;11.30;61.40;;;9.86;64.39;102543.53;12248253;19;19932;-85
2023/12/18 07:42:19;;;;;;;;;;;11.30;61.30;;;9.84;64.26;102543.56;12245358;19;19915;-85
2023/12/18 07:46:21;;;;;;;;;;;11.30;61.60;;;9.67;64.31;102522.22;12246010;19;19937;-85
2023/12/18 07:50:23;;;;;;;;;;;11.30;61.50;;;9.84;64.15;102547.91;12244110;19;20324;-84
2023/12/18 07:54:25;;;;;;;;;;;11.30;61.30;;;9.80;64.18;102536.66;12245609;19;19931;-84
2023/12/18 07:58:27;;;;;;;;;;;11.30;61.30;;;9.91;64.38;102560.78;12245955;19;19911;-84
2023/12/18 08:02:28;;;;;;;;;;;11.30;61.40;;;9.69;64.29;102508.25;12239516;19;20285;-85
2023/12/18 08:06:30;;;;;;;;;;;11.20;61.30;;;9.91;64.30;102557.31;12247463;19;19910;-85
2023/12/18 08:10:32;;;;;;;;;;;11.30;61.20;;;9.85;64.12;102539.19;12243728;19;19929;-86
2023/12/18 08:14:33;;;;;;;;;;;11.30;61.40;;;9.84;64.28;102527.91;12246684;19;19917;-85
2023/12/18 08:18:35;;;;;;;;;;;11.40;61.20;;;9.95;64.21;102540.69;12245415;19;19919;-85
2023/12/18 08:22:36;;;;;;;;;;;11.30;61.30;;;9.95;64.08;102545.91;12243999;19;19974;-85
2023/12/18 08:26:38;;;;;;;;;;;11.30;61.30;;;9.78;64.17;102516.75;12246283;19;20385;-85
2023/12/18 08:30:39;;;;;;;;;;;11.30;61.40;;;9.81;64.10;102517.53;12244293;19;19929;-84
2023/12/18 08:34:41;;;;;;;;;;;11.30;61.50;;;10.00;64.13;102537.97;12244763;19;19982;-85
2023/12/18 08:38:43;;;;;;;;;;;11.30;61.40;;;9.94;64.35;102533.78;12246488;19;19911;-85
2023/12/18 08:42:45;;;;;;;;;;;11.30;61.50;;;9.96;64.15;102529.34;12254464;19;20615;-85
2023/12/18 08:46:47;;;;;;;;;;;11.40;61.30;;;10.07;64.10;102539.53;12258307;19;19915;-85
2023/12/18 08:50:48;;;;;;;;;;;11.40;61.40;;;10.09;64.20;102542.97;12253841;19;19929;-84
2023/12/18 08:54:49;;;;;;;;;;;11.50;61.40;;;9.85;64.27;102497.44;12259102;19;19922;-86
2023/12/18 08:58:52;;;;;;;;;;;11.40;61.30;;;10.08;64.12;102531.69;12258649;19;19925;-85
2023/12/18 09:02:54;;;;;;;;;;;11.40;61.30;;;10.10;64.20;102519.47;12258215;19;19911;-84
2023/12/18 09:06:56;;;;;;;;;;;11.50;61.30;;;10.05;64.24;102504.81;12258280;19;19915;-84
2023/12/18 09:10:57;;;;;;;;;;;11.40;61.40;;;9.93;64.29;102480.69;12251739;19;20346;-85
2023/12/18 09:14:58;;;;;;;;;;;11.50;61.40;;;10.12;64.11;102516.78;12255025;19;19922;-85
2023/12/18 09:19:00;;;;;;;;;;;11.50;61.50;;;10.07;64.07;102511.72;12257798;19;19929;-84
2023/12/18 09:23:05;;;;;;;;;;;11.50;61.50;;;10.13;64.37;102524.59;12257033;19;19915;-85
2023/12/18 09:27:06;;;;;;;;;;;11.50;61.30;;;9.97;64.07;102491.94;12256102;19;20624;-85
2023/12/18 09:31:07;;;;;;;;;;;11.60;61.30;;;10.19;64.16;102516.59;12253223;19;19923;-85
2023/12/18 09:35:09;;;;;;;;;;;11.60;61.40;;;9.98;64.10;102491.88;12255355;19;20385;-84
2023/12/18 09:39:11;;;;;;;;;;;11.60;61.40;;;10.22;64.10;102527.88;12256554;19;20003;-84
2023/12/18 09:43:20;;;;;;;;;;;11.60;61.40;;;9.99;64.04;102479.72;12255892;19;19925;-85
2023/12/18 09:47:22;;;;;;;;;;;11.60;61.40;;;10.20;64.12;102515.69;12255868;19;19915;-85
2023/12/18 09:51:24;;;;;;;;;;;11.60;62.20;;;10.19;64.01;102500.94;12249577;19;20323;-84
2023/12/18 09:55:27;;;;;;;;;;;11.60;61.50;;;10.30;64.04;102518.13;12254288;19;19978;-85
2023/12/18 09:59:28;;;;;;;;;;;11.60;61.50;;;10.27;64.08;102518.19;12252323;19;19993;-85
2023/12/18 10:03:30;;;;;;;;;;;11.70;61.60;;;10.19;64.02;102500.94;12253120;19;19990;-85
2023/12/18 10:07:31;;;;;;;;;;;11.60;61.50;;;10.07;64.02;102485.59;12252263;19;20265;-85
2023/12/18 10:11:33;;;;;;;;;;;11.60;61.20;;;10.26;64.17;102509.50;12250142;19;19925;-85
2023/12/18 10:15:35;;;;;;;;;;;11.70;61.50;;;9.99;64.12;102451.00;12253023;19;19982;-86
2023/12/18 10:19:41;;;;;;;;;;;11.70;61.50;;;10.31;64.23;102493.72;12252363;19;19914;-85
2023/12/18 10:23:43;;;;;;;;;;;11.70;61.40;;;10.15;64.06;102475.81;12251232;19;20262;-86
2023/12/18 10:27:45;;;;;;;;;;;11.70;61.50;;;10.34;63.99;102511.91;12252586;19;19923;-86
2023/12/18 10:31:47;;;;;;;;;;;11.70;61.50;;;10.22;64.25;102480.88;12249548;19;20353;-85
2023/12/18 10:35:49;;;;;;;;;;;11.70;61.50;;;10.35;64.18;102488.41;12253070;19;20325;-85
2023/12/18 10:39:53;;;;;;;;;;;11.70;61.50;;;10.13;64.03;102461.09;12249880;19;19915;-85
2023/12/18 10:43:55;;;;;;;;;;;11.70;61.60;;;10.24;63.98;102486.94;12250747;19;19907;-85
2023/12/18 10:47:59;;;;;;;;;;;11.70;61.40;;;10.32;64.15;102482.41;12250426;19;19938;-85
2023/12/18 10:52:01;;;;;;;;;;;11.80;61.60;;;10.42;64.03;102478.63;12248243;19;19941;-85
2023/12/18 10:56:05;;;;;;;;;;;11.80;61.70;;;10.29;64.09;102445.91;12251148;19;19914;-84
2023/12/18 11:00:08;;;;;;;;;;;11.80;61.20;;;10.42;64.02;102457.75;12251666;19;19952;-84
2023/12/18 11:04:09;;;;;;;;;;;11.80;61.30;;;10.43;64.18;102461.22;12252594;19;19922;-84
2023/12/18 11:08:12;;;;;;;;;;;11.80;61.50;;;10.51;64.13;102467.97;12252109;19;19923;-85
2023/12/18 11:12:16;;;;;;;;;;;11.90;61.70;;;10.50;64.13;102453.16;12247040;19;19927;-86
2023/12/18 11:16:34;;;;;;;;;;;11.90;61.70;;;10.58;64.05;102450.34;12252471;19;19911;-86
2023/12/18 11:20:39;;;;;;;;;;;12.00;61.60;;;10.51;64.16;102443.59;12248525;19;19911;-87
2023/12/18 11:24:44;;;;;;;;;;;12.00;61.30;;;10.61;64.14;102450.25;12248565;19;19945;-85
2023/12/18 11:28:50;;;;;;;;;;;12.00;61.50;;;10.50;64.02;102442.72;12248083;19;19938;-84
2023/12/18 11:32:52;;;;;;;;;;;12.00;61.60;;;10.63;64.11;102446.72;12248001;19;19914;-84
2023/12/18 11:36:53;;;;;;;;;;;12.00;62.20;;;10.69;63.97;102457.88;12247368;19;19919;-85
2023/12/18 11:40:56;;;;;;;;;;;12.10;61.50;;;10.48;64.00;102420.19;12247780;19;21408;-84
2023/12/18 11:45:03;;;;;;;;;;;12.00;61.30;;;10.71;64.08;102437.81;12248230;19;19942;-84
2023/12/18 11:49:08;;;;;;;;;;;12.10;61.50;;;10.65;63.89;102438.00;12248418;19;19915;-85
2023/12/18 11:53:32;;;;;;;;;;;12.10;60.90;;;10.69;64.07;102445.69;12248206;19;19923;-85
2023/12/18 11:57:40;;;;;;;;;;;12.00;60.90;;;10.51;64.09;102410.50;12249603;19;19940;-84
2023/12/18 12:01:42;;;;;;;;;;;12.10;61.20;;;10.68;64.05;102424.84;12245760;19;19931;-85
2023/12/18 12:05:45;;;;;;;;;;;12.10;61.30;;;10.62;64.03;102407.59;12246309;19;19938;-84
2023/12/18 12:09:57;;;;;;;;;;;12.10;60.70;;;10.72;63.93;102416.88;12245869;19;19986;-85
2023/12/18 12:13:59;;;;;;;;;;;12.10;61.00;;;10.72;64.04;102414.25;12245283;19;20378;-85
2023/12/18 12:18:05;;;;;;;;;;;12.10;61.10;;;10.68;64.13;102404.78;12245339;19;19911;-85
2023/12/18 12:22:08;;;;;;;;;;;12.10;61.20;;;10.69;63.91;102397.81;12244951;19;19974;-86
2023/12/18 12:26:10;;;;;;;;;;;12.10;61.20;;;10.75;64.12;102421.16;12244633;19;19944;-86
2023/12/18 12:30:12;;;;;;;;;;;12.10;61.20;;;10.71;63.99;102407.31;12243483;19;20244;-86
2023/12/18 12:34:14;;;;;;;;;;;12.20;61.00;;;10.74;64.08;102422.88;12244052;19;19978;-86
2023/12/18 12:38:16;;;;;;;;;;;12.20;60.80;;;10.80;64.02;102422.75;12242910;19;19915;-86
2023/12/18 12:42:18;;;;;;;;;;;12.10;60.90;;;10.75;63.94;102403.72;12238951;19;19915;-86
2023/12/18 12:46:21;;;;;;;;;;;12.20;61.10;;;10.80;64.03;102408.78;12241293;19;20321;-87
2023/12/18 12:50:22;;;;;;;;;;;12.20;60.90;;;10.79;64.02;102405.31;12238718;19;19986;-86
2023/12/18 12:54:24;;;;;;;;;;;12.20;60.90;;;10.80;64.04;102417.50;12238783;19;19919;-86
2023/12/18 12:58:33;;;;;;;;;;;12.20;60.80;;;10.85;63.80;102430.41;12239075;19;20275;-86
2023/12/18 13:02:34;;;;;;;;;;;12.20;61.00;;;10.87;63.91;102433.00;12238390;19;19915;-86
2023/12/18 13:06:36;;;;;;;;;;;12.20;61.00;;;10.77;63.81;102412.34;12240045;19;20344;-86
2023/12/18 13:10:37;;;;;;;;;;;12.20;60.70;;;10.83;63.89;102409.56;12235731;19;19922;-86
2023/12/18 13:14:39;;;;;;;;;;;12.20;60.70;;;10.84;63.95;102413.03;12240392;19;20411;-86
2023/12/18 13:18:41;;;;;;;;;;;12.20;60.80;;;10.74;63.91;102386.31;12240535;19;20306;-86
2023/12/18 13:22:42;;;;;;;;;;;12.20;61.60;;;10.80;63.97;102385.28;12241533;19;19911;-86
2023/12/18 13:26:44;;;;;;;;;;;12.20;61.00;;;10.80;63.89;102374.81;12240429;19;19960;-86
2023/12/18 13:30:45;;;;;;;;;;;12.20;61.00;;;10.90;63.80;102381.50;12246194;19;19926;-85
2023/12/18 13:34:47;;;;;;;;;;;12.20;60.90;;;10.92;63.86;102384.06;12251731;19;19918;-86
2023/12/18 13:38:48;;;;;;;;;;;12.20;60.90;;;10.88;63.87;102380.66;12252055;19;19927;-85
2023/12/18 13:42:50;;;;;;;;;;;12.30;61.00;;;10.83;63.89;102362.53;12248571;19;19946;-85
2023/12/18 13:46:52;;;;;;;;;;;12.30;61.00;;;10.86;63.63;102377.28;12249989;19;19923;-85
2023/12/18 13:50:53;;;;;;;;;;;12.30;61.10;;;10.70;63.68;102342.91;12246921;19;20001;-85
2023/12/18 13:54:55;;;;;;;;;;;12.30;61.00;;;10.81;63.88;102346.03;12251361;19;19943;-85
2023/12/18 13:58:56;;;;;;;;;;;12.20;61.00;;;10.88;63.91;102358.91;12252716;19;19923;-87
2023/12/18 14:03:00;;;;;;;;;;;12.30;61.00;;;10.85;63.89;102338.97;12253511;19;19919;-84
2023/12/18 14:07:01;;;;;;;;;;;12.30;61.60;;;10.84;63.75;102337.25;12254994;19;19923;-86
2023/12/18 14:11:03;;;;;;;;;;;12.30;61.00;;;10.87;63.65;102329.31;12248629;19;19921;-86
2023/12/18 14:15:05;;;;;;;;;;;12.30;61.10;;;10.66;63.65;102298.63;12254340;19;19919;-84
2023/12/18 14:19:07;;;;;;;;;;;12.30;61.00;;;10.96;63.85;102352.53;12251753;19;19926;-85
2023/12/18 14:23:09;;;;;;;;;;;12.30;61.10;;;10.98;63.74;102345.53;12253835;19;20533;-84
2023/12/18 14:27:10;;;;;;;;;;;12.30;61.10;;;10.98;63.78;102345.53;12252350;19;19942;-85
2023/12/18 14:31:12;;;;;;;;;;;12.30;61.10;;;10.91;63.73;102341.41;12247749;19;19910;-84
2023/12/18 14:35:14;;;;;;;;;;;12.30;61.10;;;10.91;63.73;102320.50;12250820;19;20016;-86
2023/12/18 14:39:15;;;;;;;;;;;12.30;60.90;;;10.85;63.81;102302.38;12248720;19;20252;-84
2023/12/18 14:43:17;;;;;;;;;;;12.30;61.10;;;10.93;63.62;102321.28;12251153;19;19914;-84
2023/12/18 14:47:19;;;;;;;;;;;12.30;61.00;;;10.87;63.79;102324.09;12248270;19;19918;-84
2023/12/18 14:51:20;;;;;;;;;;;12.30;60.90;;;10.95;63.83;102343.00;12239070;19;19931;-84
2023/12/18 14:55:23;;;;;;;;;;;12.30;60.80;;;10.95;63.75;102348.22;12251418;19;19915;-84
2023/12/18 14:59:24;;;;;;;;;;;12.30;60.90;;;10.77;63.72;102327.88;12250708;19;19983;-84
2023/12/18 15:03:26;;;;;;;;;;;12.30;60.90;;;10.64;63.64;102316.97;12248273;19;19915;-84
2023/12/18 15:07:27;;;;;;;;;;;12.20;60.80;;;10.90;63.68;102364.97;12251729;19;19970;-84
2023/12/18 15:11:29;;;;;;;;;;;12.20;60.90;;;10.90;63.61;102364.97;12246834;19;19912;-84
2023/12/18 15:15:30;;;;;;;;;;;12.20;60.90;;;10.88;63.63;102367.59;12250468;19;19930;-84
2023/12/18 15:19:41;;;;;;;;;;;12.20;60.90;;;10.68;63.63;102323.78;12250228;19;19927;-85
2023/12/18 15:23:43;;;;;;;;;;;12.20;60.90;;;10.87;63.66;102362.44;12249125;19;19915;-84
2023/12/18 15:27:45;;;;;;;;;;;12.20;60.80;;;10.65;63.61;102309.97;12249579;19;20612;-84
2023/12/18 15:31:47;;;;;;;;;;;12.20;60.80;;;10.87;63.54;102352.84;12247573;19;20321;-84
2023/12/18 15:35:51;;;;;;;;;;;12.20;60.90;;;10.86;63.58;102351.13;12250338;19;20301;-85
2023/12/18 15:39:53;;;;;;;;;;;12.30;61.10;;;10.84;63.59;102337.25;12249949;19;19914;-84
2023/12/18 15:43:55;;;;;;;;;;;12.20;61.00;;;10.79;63.61;102331.31;12249696;19;19915;-84
2023/12/18 15:47:57;;;;;;;;;;;12.10;60.80;;;10.82;63.67;102339.91;12251465;19;19922;-84
2023/12/18 15:51:58;;;;;;;;;;;12.20;60.80;;;10.66;63.51;102301.22;12243676;19;19923;-84
2023/12/18 15:56:01;;;;;;;;;;;12.20;60.80;;;10.70;63.63;102310.69;12250487;19;19923;-85
2023/12/18 16:00:04;;;;;;;;;;;12.20;60.80;;;10.81;63.62;102326.91;12248884;19;19936;-85
2023/12/18 16:04:11;;;;;;;;;;;12.10;60.50;;;10.74;63.32;102312.31;12248813;19;19915;-85
2023/12/18 16:08:13;;;;;;;;;;;12.10;60.30;;;10.79;63.50;102329.53;12247455;19;19970;-84
2023/12/18 16:12:19;;;;;;;;;;;12.20;60.50;;;10.74;63.45;102327.97;12242957;19;20412;-85
2023/12/18 16:16:20;;;;;;;;;;;12.10;60.60;;;10.55;63.52;102275.44;12245850;19;19915;-84
2023/12/18 16:20:22;;;;;;;;;;;12.10;60.60;;;10.75;63.69;102293.13;12241624;19;20270;-85
2023/12/18 16:24:23;;;;;;;;;;;12.10;60.60;;;10.69;63.36;102270.63;12246479;19;20009;-84
2023/12/18 16:28:25;;;;;;;;;;;12.00;60.40;;;10.72;63.59;102282.75;12244143;19;19918;-84
2023/12/18 16:32:27;;;;;;;;;;;12.00;60.50;;;10.69;63.53;102275.00;12243140;19;19934;-84
2023/12/18 16:36:29;;;;;;;;;;;12.00;60.50;;;10.60;63.47;102269.16;12246486;19;19915;-84
2023/12/18 16:40:31;;;;;;;;;;;12.00;60.60;;;10.55;63.45;102265.81;12243786;19;19915;-84
2023/12/18 16:44:33;;;;;;;;;;;12.00;60.60;;;10.62;63.43;102277.81;12246137;19;20346;-85
2023/12/18 16:48:34;;;;;;;;;;;12.00;60.70;;;10.53;63.45;102272.00;12246124;19;19921;-84
2023/12/18 16:52:35;;;;;;;;;;;11.90;60.60;;;10.56;63.33;102256.25;12242306;19;19927;-84
2023/12/18 16:56:37;;;;;;;;;;;11.90;60.60;;;10.58;63.56;102264.88;12244732;19;20333;-84
2023/12/18 17:00:38;;;;;;;;;;;11.90;60.60;;;10.55;63.50;102265.81;12241829;19;19919;-84
2023/12/18 17:04:40;;;;;;;;;;;11.80;60.50;;;10.46;63.54;102255.66;12255373;19;19918;-85
2023/12/18 17:08:41;;;;;;;;;;;11.80;60.50;;;10.51;63.46;102263.38;12257158;19;19986;-84
2023/12/18 17:12:43;;;;;;;;;;;11.80;60.60;;;10.54;63.35;102271.97;12257942;19;19923;-84
2023/12/18 17:16:44;;;;;;;;;;;11.80;60.60;;;10.51;63.44;102263.38;12255294;19;19923;-84
2023/12/18 17:20:46;;;;;;;;;;;11.70;60.40;;;10.30;63.53;102217.88;12255958;19;19997;-84
2023/12/18 17:24:48;;;;;;;;;;;11.80;60.60;;;10.37;63.37;102230.69;12253337;19;19957;-84
2023/12/18 17:28:53;;;;;;;;;;;11.80;60.50;;;10.44;63.19;102244.41;12254124;19;19914;-84
2023/12/18 17:32:55;;;;;;;;;;;11.80;60.40;;;10.42;63.34;102238.38;12254038;19;19941;-84
2023/12/18 17:36:56;;;;;;;;;;;11.70;60.30;;;10.31;63.36;102223.03;12255767;19;20269;-84
2023/12/18 17:40:58;;;;;;;;;;;11.60;60.10;;;10.31;63.32;102219.56;12253775;19;19934;-84
2023/12/18 17:45:00;;;;;;;;;;;11.70;60.40;;;10.17;63.19;102181.63;12253019;19;19938;-85
2023/12/18 17:49:02;;;;;;;;;;;11.60;60.40;;;10.17;63.37;102178.16;12253779;19;19922;-85
2023/12/18 17:53:04;;;;;;;;;;;11.60;60.20;;;10.30;63.20;102195.22;12253225;19;19930;-85
2023/12/18 17:57:05;;;;;;;;;;;11.50;60.10;;;10.03;63.30;102154.25;12255852;19;19910;-84
2023/12/18 18:01:06;;;;;;;;;;;11.50;60.10;;;10.25;63.21;102177.94;12252032;19;19925;-85
2023/12/18 18:05:09;;;;;;;;;;;11.50;60.20;;;10.12;63.17;102167.84;12253737;19;19918;-85
2023/12/18 18:09:10;;;;;;;;;;;11.50;60.30;;;10.15;63.26;102173.03;12250871;19;19923;-85
2023/12/18 18:13:12;;;;;;;;;;;11.40;60.20;;;10.06;63.24;102177.66;12251420;19;19926;-85
2023/12/18 18:17:14;;;;;;;;;;;11.40;60.10;;;10.01;63.22;102164.72;12249735;19;20355;-84